sensor_id;sensor_type;location;lat;lon;timestamp;P1;durP1;ratioP1;P2;durP2;ratioP2
29550;SDS011;16488;52.396;10.696;2024-02-28T00:00:48;20.85;;;11.18;;
29550;SDS011;16488;52.396;10.696;2024-02-28T00:03:13;22.27;;;12.45;;
29550;SDS011;16488;52.396;10.696;2024-02-28T00:05:39;21.55;;;12.35;;
29550;SDS011;16488;52.396;10.696;2024-02-28T00:08:05;21.58;;;12.27;;
29550;SDS011;16488;52.396;10.696;2024-02-28T00:10:31;25.58;;;12.60;;
29550;SDS011;16488;52.396;10.696;2024-02-28T00:12:58;20.85;;;10.98;;
29550;SDS011;16488;52.396;10.696;2024-02-28T00:15:24;21.02;;;12.48;;
29550;SDS011;16488;52.396;10.696;2024-02-28T00:17:51;22.73;;;12.80;;
29550;SDS011;16488;52.396;10.696;2024-02-28T00:20:18;23.27;;;12.98;;
29550;SDS011;16488;52.396;10.696;2024-02-28T00:22:44;21.90;;;13.25;;
29550;SDS011;16488;52.396;10.696;2024-02-28T00:25:10;24.20;;;12.52;;
29550;SDS011;16488;52.396;10.696;2024-02-28T00:27:36;20.25;;;12.27;;
29550;SDS011;16488;52.396;10.696;2024-02-28T00:30:02;24.17;;;11.65;;
29550;SDS011;16488;52.396;10.696;2024-02-28T00:32:31;25.30;;;14.35;;
29550;SDS011;16488;52.396;10.696;2024-02-28T00:37:23;23.98;;;12.45;;
29550;SDS011;16488;52.396;10.696;2024-02-28T00:39:49;21.25;;;12.50;;
29550;SDS011;16488;52.396;10.696;2024-02-28T00:42:14;25.10;;;14.43;;
29550;SDS011;16488;52.396;10.696;2024-02-28T00:44:40;22.25;;;12.93;;
29550;SDS011;16488;52.396;10.696;2024-02-28T00:47:07;21.83;;;13.00;;
29550;SDS011;16488;52.396;10.696;2024-02-28T00:49:33;27.52;;;13.65;;
29550;SDS011;16488;52.396;10.696;2024-02-28T00:54:25;23.33;;;12.60;;
29550;SDS011;16488;52.396;10.696;2024-02-28T00:56:51;25.25;;;13.00;;
29550;SDS011;16488;52.396;10.696;2024-02-28T00:59:17;22.80;;;12.80;;
29550;SDS011;16488;52.396;10.696;2024-02-28T01:01:42;26.25;;;12.80;;
29550;SDS011;16488;52.396;10.696;2024-02-28T01:04:08;24.20;;;13.73;;
29550;SDS011;16488;52.396;10.696;2024-02-28T01:06:33;24.67;;;13.68;;
29550;SDS011;16488;52.396;10.696;2024-02-28T01:08:59;20.00;;;12.45;;
29550;SDS011;16488;52.396;10.696;2024-02-28T01:11:25;23.35;;;13.15;;
29550;SDS011;16488;52.396;10.696;2024-02-28T01:13:50;22.63;;;12.82;;
29550;SDS011;16488;52.396;10.696;2024-02-28T01:16:16;24.70;;;13.57;;
29550;SDS011;16488;52.396;10.696;2024-02-28T01:18:42;26.65;;;13.88;;
29550;SDS011;16488;52.396;10.696;2024-02-28T01:21:07;26.42;;;14.55;;
29550;SDS011;16488;52.396;10.696;2024-02-28T01:23:33;24.00;;;12.90;;
29550;SDS011;16488;52.396;10.696;2024-02-28T01:25:59;29.77;;;15.10;;
29550;SDS011;16488;52.396;10.696;2024-02-28T01:28:24;23.38;;;12.90;;
29550;SDS011;16488;52.396;10.696;2024-02-28T01:33:16;24.02;;;13.23;;
29550;SDS011;16488;52.396;10.696;2024-02-28T01:35:41;22.05;;;12.02;;
29550;SDS011;16488;52.396;10.696;2024-02-28T01:38:07;21.88;;;12.18;;
29550;SDS011;16488;52.396;10.696;2024-02-28T01:40:33;22.13;;;12.48;;
29550;SDS011;16488;52.396;10.696;2024-02-28T01:43:02;23.92;;;13.65;;
29550;SDS011;16488;52.396;10.696;2024-02-28T01:45:37;25.30;;;13.68;;
29550;SDS011;16488;52.396;10.696;2024-02-28T01:48:03;25.15;;;13.15;;
29550;SDS011;16488;52.396;10.696;2024-02-28T01:50:31;22.95;;;12.85;;
29550;SDS011;16488;52.396;10.696;2024-02-28T01:52:57;28.15;;;13.88;;
29550;SDS011;16488;52.396;10.696;2024-02-28T01:55:24;23.75;;;12.95;;
29550;SDS011;16488;52.396;10.696;2024-02-28T01:57:51;30.13;;;13.63;;
29550;SDS011;16488;52.396;10.696;2024-02-28T02:00:17;25.08;;;13.25;;
29550;SDS011;16488;52.396;10.696;2024-02-28T02:02:44;26.08;;;13.48;;
29550;SDS011;16488;52.396;10.696;2024-02-28T02:05:10;24.35;;;13.18;;
29550;SDS011;16488;52.396;10.696;2024-02-28T02:07:35;25.70;;;13.95;;
29550;SDS011;16488;52.396;10.696;2024-02-28T02:10:01;25.70;;;13.60;;
29550;SDS011;16488;52.396;10.696;2024-02-28T02:12:27;24.75;;;13.20;;
29550;SDS011;16488;52.396;10.696;2024-02-28T02:14:52;26.05;;;13.77;;
29550;SDS011;16488;52.396;10.696;2024-02-28T02:17:18;25.58;;;13.07;;
29550;SDS011;16488;52.396;10.696;2024-02-28T02:19:44;25.13;;;13.45;;
29550;SDS011;16488;52.396;10.696;2024-02-28T02:22:10;21.20;;;13.07;;
29550;SDS011;16488;52.396;10.696;2024-02-28T02:24:38;25.08;;;14.30;;
29550;SDS011;16488;52.396;10.696;2024-02-28T02:27:04;23.17;;;13.55;;
29550;SDS011;16488;52.396;10.696;2024-02-28T02:29:30;22.65;;;13.02;;
29550;SDS011;16488;52.396;10.696;2024-02-28T02:31:56;26.15;;;14.05;;
29550;SDS011;16488;52.396;10.696;2024-02-28T02:34:21;22.25;;;12.95;;
29550;SDS011;16488;52.396;10.696;2024-02-28T02:36:47;22.35;;;13.27;;
29550;SDS011;16488;52.396;10.696;2024-02-28T02:39:12;25.98;;;12.95;;
29550;SDS011;16488;52.396;10.696;2024-02-28T02:41:38;25.20;;;13.13;;
29550;SDS011;16488;52.396;10.696;2024-02-28T02:44:04;27.02;;;13.27;;
29550;SDS011;16488;52.396;10.696;2024-02-28T02:46:29;23.13;;;12.68;;
29550;SDS011;16488;52.396;10.696;2024-02-28T02:48:55;21.98;;;11.82;;
29550;SDS011;16488;52.396;10.696;2024-02-28T02:51:20;23.02;;;12.80;;
29550;SDS011;16488;52.396;10.696;2024-02-28T02:53:46;23.35;;;11.35;;
29550;SDS011;16488;52.396;10.696;2024-02-28T02:56:12;21.75;;;12.75;;
29550;SDS011;16488;52.396;10.696;2024-02-28T02:58:37;22.42;;;13.13;;
29550;SDS011;16488;52.396;10.696;2024-02-28T03:01:03;24.15;;;13.70;;
29550;SDS011;16488;52.396;10.696;2024-02-28T03:03:28;28.45;;;13.70;;
29550;SDS011;16488;52.396;10.696;2024-02-28T03:05:54;23.08;;;12.65;;
29550;SDS011;16488;52.396;10.696;2024-02-28T03:08:20;22.88;;;12.88;;
29550;SDS011;16488;52.396;10.696;2024-02-28T03:10:45;24.23;;;13.18;;
29550;SDS011;16488;52.396;10.696;2024-02-28T03:13:11;26.10;;;13.63;;
29550;SDS011;16488;52.396;10.696;2024-02-28T03:15:36;21.17;;;12.95;;
29550;SDS011;16488;52.396;10.696;2024-02-28T03:18:02;24.73;;;13.80;;
29550;SDS011;16488;52.396;10.696;2024-02-28T03:22:53;25.10;;;13.00;;
29550;SDS011;16488;52.396;10.696;2024-02-28T03:25:19;23.50;;;12.85;;
29550;SDS011;16488;52.396;10.696;2024-02-28T03:27:45;23.15;;;13.00;;
29550;SDS011;16488;52.396;10.696;2024-02-28T03:30:10;23.75;;;12.98;;
29550;SDS011;16488;52.396;10.696;2024-02-28T03:32:36;29.00;;;14.40;;
29550;SDS011;16488;52.396;10.696;2024-02-28T03:35:01;25.02;;;12.70;;
29550;SDS011;16488;52.396;10.696;2024-02-28T03:37:29;22.98;;;14.02;;
29550;SDS011;16488;52.396;10.696;2024-02-28T03:39:54;24.27;;;13.85;;
29550;SDS011;16488;52.396;10.696;2024-02-28T03:42:20;25.83;;;14.10;;
29550;SDS011;16488;52.396;10.696;2024-02-28T03:44:46;27.10;;;15.15;;
29550;SDS011;16488;52.396;10.696;2024-02-28T03:47:11;26.05;;;14.25;;
29550;SDS011;16488;52.396;10.696;2024-02-28T03:49:37;21.75;;;12.73;;
29550;SDS011;16488;52.396;10.696;2024-02-28T03:52:03;27.83;;;14.07;;
29550;SDS011;16488;52.396;10.696;2024-02-28T03:54:31;25.13;;;14.32;;
29550;SDS011;16488;52.396;10.696;2024-02-28T03:56:56;31.30;;;14.70;;
29550;SDS011;16488;52.396;10.696;2024-02-28T03:59:23;21.33;;;12.90;;
29550;SDS011;16488;52.396;10.696;2024-02-28T04:01:49;26.20;;;12.88;;
29550;SDS011;16488;52.396;10.696;2024-02-28T04:04:14;25.85;;;13.20;;
29550;SDS011;16488;52.396;10.696;2024-02-28T04:06:40;23.23;;;13.70;;
29550;SDS011;16488;52.396;10.696;2024-02-28T04:09:06;28.08;;;15.10;;
29550;SDS011;16488;52.396;10.696;2024-02-28T04:11:31;30.23;;;15.57;;
29550;SDS011;16488;52.396;10.696;2024-02-28T04:13:57;31.25;;;14.75;;
29550;SDS011;16488;52.396;10.696;2024-02-28T04:16:23;30.98;;;15.38;;
29550;SDS011;16488;52.396;10.696;2024-02-28T04:18:49;34.97;;;16.20;;
29550;SDS011;16488;52.396;10.696;2024-02-28T04:21:14;38.08;;;15.73;;
29550;SDS011;16488;52.396;10.696;2024-02-28T04:23:40;28.48;;;15.18;;
29550;SDS011;16488;52.396;10.696;2024-02-28T04:26:06;28.40;;;15.38;;
29550;SDS011;16488;52.396;10.696;2024-02-28T04:28:32;29.50;;;14.70;;
29550;SDS011;16488;52.396;10.696;2024-02-28T04:30:58;28.02;;;15.43;;
29550;SDS011;16488;52.396;10.696;2024-02-28T04:33:24;31.15;;;17.10;;
29550;SDS011;16488;52.396;10.696;2024-02-28T04:35:50;27.75;;;15.15;;
29550;SDS011;16488;52.396;10.696;2024-02-28T04:38:15;33.45;;;17.52;;
29550;SDS011;16488;52.396;10.696;2024-02-28T04:40:41;33.05;;;17.23;;
29550;SDS011;16488;52.396;10.696;2024-02-28T04:43:07;38.25;;;18.55;;
29550;SDS011;16488;52.396;10.696;2024-02-28T04:45:32;39.55;;;20.98;;
29550;SDS011;16488;52.396;10.696;2024-02-28T04:47:58;41.83;;;20.23;;
29550;SDS011;16488;52.396;10.696;2024-02-28T04:50:23;39.40;;;20.58;;
29550;SDS011;16488;52.396;10.696;2024-02-28T04:52:49;42.38;;;19.45;;
29550;SDS011;16488;52.396;10.696;2024-02-28T04:55:15;40.63;;;21.05;;
29550;SDS011;16488;52.396;10.696;2024-02-28T04:57:40;42.40;;;19.98;;
29550;SDS011;16488;52.396;10.696;2024-02-28T05:00:06;44.63;;;22.27;;
29550;SDS011;16488;52.396;10.696;2024-02-28T05:02:33;40.85;;;21.45;;
29550;SDS011;16488;52.396;10.696;2024-02-28T05:04:59;46.20;;;21.60;;
29550;SDS011;16488;52.396;10.696;2024-02-28T05:09:50;43.88;;;22.23;;
29550;SDS011;16488;52.396;10.696;2024-02-28T05:12:16;38.55;;;21.48;;
29550;SDS011;16488;52.396;10.696;2024-02-28T05:14:41;42.17;;;20.58;;
29550;SDS011;16488;52.396;10.696;2024-02-28T05:17:07;46.30;;;23.98;;
29550;SDS011;16488;52.396;10.696;2024-02-28T05:19:32;45.45;;;22.52;;
29550;SDS011;16488;52.396;10.696;2024-02-28T05:21:58;43.55;;;22.05;;
29550;SDS011;16488;52.396;10.696;2024-02-28T05:24:26;45.60;;;22.63;;
29550;SDS011;16488;52.396;10.696;2024-02-28T05:26:51;42.65;;;22.00;;
29550;SDS011;16488;52.396;10.696;2024-02-28T05:29:17;50.17;;;23.33;;
29550;SDS011;16488;52.396;10.696;2024-02-28T05:31:42;45.47;;;21.48;;
29550;SDS011;16488;52.396;10.696;2024-02-28T05:34:08;51.72;;;22.67;;
29550;SDS011;16488;52.396;10.696;2024-02-28T05:36:34;46.10;;;22.92;;
29550;SDS011;16488;52.396;10.696;2024-02-28T05:39:00;47.05;;;23.88;;
29550;SDS011;16488;52.396;10.696;2024-02-28T05:41:30;48.58;;;22.52;;
29550;SDS011;16488;52.396;10.696;2024-02-28T05:43:56;47.20;;;23.50;;
29550;SDS011;16488;52.396;10.696;2024-02-28T05:46:21;44.08;;;22.80;;
29550;SDS011;16488;52.396;10.696;2024-02-28T05:48:47;45.35;;;22.88;;
29550;SDS011;16488;52.396;10.696;2024-02-28T05:51:13;51.38;;;22.77;;
29550;SDS011;16488;52.396;10.696;2024-02-28T05:53:39;46.22;;;23.80;;
29550;SDS011;16488;52.396;10.696;2024-02-28T05:56:06;44.03;;;22.17;;
29550;SDS011;16488;52.396;10.696;2024-02-28T05:58:44;45.83;;;20.95;;
29550;SDS011;16488;52.396;10.696;2024-02-28T06:03:37;40.53;;;19.58;;
29550;SDS011;16488;52.396;10.696;2024-02-28T06:06:03;45.47;;;19.42;;
29550;SDS011;16488;52.396;10.696;2024-02-28T06:08:35;43.95;;;19.75;;
29550;SDS011;16488;52.396;10.696;2024-02-28T06:11:03;44.58;;;19.92;;
29550;SDS011;16488;52.396;10.696;2024-02-28T06:13:30;43.35;;;20.40;;
29550;SDS011;16488;52.396;10.696;2024-02-28T06:15:56;47.10;;;21.08;;
29550;SDS011;16488;52.396;10.696;2024-02-28T06:18:22;43.95;;;21.17;;
29550;SDS011;16488;52.396;10.696;2024-02-28T06:20:49;45.70;;;21.30;;
29550;SDS011;16488;52.396;10.696;2024-02-28T06:23:14;47.80;;;22.48;;
29550;SDS011;16488;52.396;10.696;2024-02-28T06:25:40;46.35;;;21.40;;
29550;SDS011;16488;52.396;10.696;2024-02-28T06:28:08;49.92;;;22.88;;
29550;SDS011;16488;52.396;10.696;2024-02-28T06:30:35;49.67;;;21.85;;
29550;SDS011;16488;52.396;10.696;2024-02-28T06:33:00;51.45;;;22.70;;
29550;SDS011;16488;52.396;10.696;2024-02-28T06:35:26;40.10;;;19.95;;
29550;SDS011;16488;52.396;10.696;2024-02-28T06:37:52;47.65;;;23.02;;
29550;SDS011;16488;52.396;10.696;2024-02-28T06:40:18;48.25;;;24.00;;
29550;SDS011;16488;52.396;10.696;2024-02-28T06:42:43;50.25;;;22.25;;
29550;SDS011;16488;52.396;10.696;2024-02-28T06:45:09;49.08;;;22.05;;
29550;SDS011;16488;52.396;10.696;2024-02-28T06:47:35;44.88;;;21.30;;
29550;SDS011;16488;52.396;10.696;2024-02-28T06:50:02;47.78;;;22.38;;
29550;SDS011;16488;52.396;10.696;2024-02-28T06:52:29;60.00;;;23.92;;
29550;SDS011;16488;52.396;10.696;2024-02-28T06:54:55;44.28;;;20.92;;
29550;SDS011;16488;52.396;10.696;2024-02-28T06:57:20;47.28;;;21.25;;
29550;SDS011;16488;52.396;10.696;2024-02-28T06:59:46;44.55;;;20.80;;
29550;SDS011;16488;52.396;10.696;2024-02-28T07:02:12;47.80;;;22.52;;
29550;SDS011;16488;52.396;10.696;2024-02-28T07:04:38;43.80;;;20.02;;
29550;SDS011;16488;52.396;10.696;2024-02-28T07:07:03;48.30;;;21.90;;
29550;SDS011;16488;52.396;10.696;2024-02-28T07:09:29;45.25;;;20.40;;
29550;SDS011;16488;52.396;10.696;2024-02-28T07:11:57;44.95;;;22.52;;
29550;SDS011;16488;52.396;10.696;2024-02-28T07:14:23;51.28;;;22.20;;
29550;SDS011;16488;52.396;10.696;2024-02-28T07:16:49;49.90;;;22.38;;
29550;SDS011;16488;52.396;10.696;2024-02-28T07:19:16;48.55;;;22.65;;
29550;SDS011;16488;52.396;10.696;2024-02-28T07:21:42;46.65;;;23.77;;
29550;SDS011;16488;52.396;10.696;2024-02-28T07:24:08;51.95;;;25.50;;
29550;SDS011;16488;52.396;10.696;2024-02-28T07:26:34;59.83;;;25.42;;
29550;SDS011;16488;52.396;10.696;2024-02-28T07:29:00;55.58;;;25.75;;
29550;SDS011;16488;52.396;10.696;2024-02-28T07:31:25;50.45;;;23.60;;
29550;SDS011;16488;52.396;10.696;2024-02-28T07:33:52;46.10;;;23.73;;
29550;SDS011;16488;52.396;10.696;2024-02-28T07:36:17;54.03;;;25.33;;
29550;SDS011;16488;52.396;10.696;2024-02-28T07:41:09;50.88;;;24.70;;
29550;SDS011;16488;52.396;10.696;2024-02-28T07:43:35;51.13;;;23.20;;
29550;SDS011;16488;52.396;10.696;2024-02-28T07:46:06;49.30;;;24.92;;
29550;SDS011;16488;52.396;10.696;2024-02-28T07:48:33;55.40;;;26.90;;
29550;SDS011;16488;52.396;10.696;2024-02-28T07:50:59;53.00;;;25.67;;
29550;SDS011;16488;52.396;10.696;2024-02-28T07:53:24;62.67;;;25.45;;
29550;SDS011;16488;52.396;10.696;2024-02-28T07:55:50;51.53;;;26.15;;
29550;SDS011;16488;52.396;10.696;2024-02-28T07:58:15;57.50;;;26.27;;
29550;SDS011;16488;52.396;10.696;2024-02-28T08:00:41;56.28;;;25.73;;
29550;SDS011;16488;52.396;10.696;2024-02-28T08:03:08;54.42;;;26.45;;
29550;SDS011;16488;52.396;10.696;2024-02-28T08:05:34;50.75;;;25.75;;
29550;SDS011;16488;52.396;10.696;2024-02-28T08:08:04;55.20;;;26.88;;
29550;SDS011;16488;52.396;10.696;2024-02-28T08:10:30;50.33;;;24.98;;
29550;SDS011;16488;52.396;10.696;2024-02-28T08:12:56;56.95;;;26.08;;
29550;SDS011;16488;52.396;10.696;2024-02-28T08:15:22;52.10;;;24.77;;
29550;SDS011;16488;52.396;10.696;2024-02-28T08:17:48;50.60;;;24.60;;
29550;SDS011;16488;52.396;10.696;2024-02-28T08:20:14;53.65;;;24.20;;
29550;SDS011;16488;52.396;10.696;2024-02-28T08:22:40;55.40;;;24.13;;
29550;SDS011;16488;52.396;10.696;2024-02-28T08:25:06;50.22;;;23.17;;
29550;SDS011;16488;52.396;10.696;2024-02-28T08:27:32;52.50;;;23.52;;
29550;SDS011;16488;52.396;10.696;2024-02-28T08:29:59;46.58;;;22.75;;
29550;SDS011;16488;52.396;10.696;2024-02-28T08:32:25;50.92;;;23.73;;
29550;SDS011;16488;52.396;10.696;2024-02-28T08:34:51;45.75;;;23.70;;
29550;SDS011;16488;52.396;10.696;2024-02-28T08:37:19;44.08;;;21.33;;
29550;SDS011;16488;52.396;10.696;2024-02-28T08:39:44;51.78;;;24.15;;
29550;SDS011;16488;52.396;10.696;2024-02-28T08:42:10;48.15;;;22.15;;
29550;SDS011;16488;52.396;10.696;2024-02-28T08:44:37;50.30;;;22.70;;
29550;SDS011;16488;52.396;10.696;2024-02-28T08:47:03;50.45;;;22.60;;
29550;SDS011;16488;52.396;10.696;2024-02-28T08:49:29;48.78;;;23.13;;
29550;SDS011;16488;52.396;10.696;2024-02-28T08:51:56;54.13;;;22.70;;
29550;SDS011;16488;52.396;10.696;2024-02-28T08:56:47;43.05;;;21.25;;
29550;SDS011;16488;52.396;10.696;2024-02-28T08:59:13;46.88;;;23.35;;
29550;SDS011;16488;52.396;10.696;2024-02-28T09:01:39;55.95;;;22.77;;
29550;SDS011;16488;52.396;10.696;2024-02-28T09:04:06;42.85;;;21.25;;
29550;SDS011;16488;52.396;10.696;2024-02-28T09:06:32;46.22;;;21.33;;
29550;SDS011;16488;52.396;10.696;2024-02-28T09:08:57;43.65;;;21.05;;
29550;SDS011;16488;52.396;10.696;2024-02-28T09:11:23;47.58;;;22.38;;
29550;SDS011;16488;52.396;10.696;2024-02-28T09:13:50;49.55;;;22.98;;
29550;SDS011;16488;52.396;10.696;2024-02-28T09:16:16;52.80;;;23.30;;
29550;SDS011;16488;52.396;10.696;2024-02-28T09:18:41;47.20;;;24.17;;
29550;SDS011;16488;52.396;10.696;2024-02-28T09:21:07;48.60;;;20.33;;
29550;SDS011;16488;52.396;10.696;2024-02-28T09:26:02;48.22;;;19.90;;
29550;SDS011;16488;52.396;10.696;2024-02-28T09:28:28;49.70;;;20.23;;
29550;SDS011;16488;52.396;10.696;2024-02-28T09:30:54;51.75;;;21.50;;
29550;SDS011;16488;52.396;10.696;2024-02-28T09:33:20;48.88;;;21.67;;
29550;SDS011;16488;52.396;10.696;2024-02-28T09:35:46;53.60;;;21.95;;
29550;SDS011;16488;52.396;10.696;2024-02-28T09:38:11;47.00;;;21.30;;
29550;SDS011;16488;52.396;10.696;2024-02-28T09:40:37;48.20;;;21.58;;
29550;SDS011;16488;52.396;10.696;2024-02-28T09:43:03;50.55;;;22.38;;
29550;SDS011;16488;52.396;10.696;2024-02-28T09:45:30;49.05;;;21.17;;
29550;SDS011;16488;52.396;10.696;2024-02-28T09:47:59;48.35;;;21.25;;
29550;SDS011;16488;52.396;10.696;2024-02-28T09:50:25;50.55;;;22.30;;
29550;SDS011;16488;52.396;10.696;2024-02-28T09:52:52;51.70;;;23.00;;
29550;SDS011;16488;52.396;10.696;2024-02-28T09:55:20;50.67;;;21.38;;
29550;SDS011;16488;52.396;10.696;2024-02-28T09:57:49;55.30;;;23.67;;
29550;SDS011;16488;52.396;10.696;2024-02-28T10:00:17;52.13;;;21.35;;
29550;SDS011;16488;52.396;10.696;2024-02-28T10:02:46;50.13;;;21.63;;
29550;SDS011;16488;52.396;10.696;2024-02-28T10:05:13;49.22;;;22.48;;
29550;SDS011;16488;52.396;10.696;2024-02-28T10:07:39;53.83;;;22.02;;
29550;SDS011;16488;52.396;10.696;2024-02-28T10:12:33;58.70;;;22.17;;
29550;SDS011;16488;52.396;10.696;2024-02-28T10:14:59;44.33;;;19.90;;
29550;SDS011;16488;52.396;10.696;2024-02-28T10:17:26;53.22;;;21.85;;
29550;SDS011;16488;52.396;10.696;2024-02-28T10:19:52;42.42;;;19.83;;
29550;SDS011;16488;52.396;10.696;2024-02-28T10:22:17;45.17;;;21.65;;
29550;SDS011;16488;52.396;10.696;2024-02-28T10:24:43;47.75;;;20.48;;
29550;SDS011;16488;52.396;10.696;2024-02-28T10:27:09;48.08;;;21.17;;
29550;SDS011;16488;52.396;10.696;2024-02-28T10:29:34;44.30;;;19.52;;
29550;SDS011;16488;52.396;10.696;2024-02-28T10:32:00;48.28;;;20.63;;
29550;SDS011;16488;52.396;10.696;2024-02-28T10:34:28;44.40;;;20.20;;
29550;SDS011;16488;52.396;10.696;2024-02-28T10:36:54;44.92;;;20.40;;
29550;SDS011;16488;52.396;10.696;2024-02-28T10:39:23;48.42;;;21.00;;
29550;SDS011;16488;52.396;10.696;2024-02-28T10:41:49;48.42;;;24.10;;
29550;SDS011;16488;52.396;10.696;2024-02-28T10:44:17;45.45;;;22.33;;
29550;SDS011;16488;52.396;10.696;2024-02-28T10:46:45;46.90;;;21.70;;
29550;SDS011;16488;52.396;10.696;2024-02-28T10:49:14;45.28;;;22.77;;
29550;SDS011;16488;52.396;10.696;2024-02-28T10:51:40;39.47;;;20.40;;
29550;SDS011;16488;52.396;10.696;2024-02-28T10:54:11;41.67;;;20.52;;
29550;SDS011;16488;52.396;10.696;2024-02-28T10:56:38;47.95;;;21.88;;
29550;SDS011;16488;52.396;10.696;2024-02-28T10:59:05;40.22;;;21.20;;
29550;SDS011;16488;52.396;10.696;2024-02-28T11:01:33;41.65;;;20.23;;
29550;SDS011;16488;52.396;10.696;2024-02-28T11:04:04;44.13;;;22.48;;
29550;SDS011;16488;52.396;10.696;2024-02-28T11:06:30;38.97;;;20.25;;
29550;SDS011;16488;52.396;10.696;2024-02-28T11:08:58;47.15;;;21.75;;
29550;SDS011;16488;52.396;10.696;2024-02-28T11:11:25;44.25;;;23.13;;
29550;SDS011;16488;52.396;10.696;2024-02-28T11:13:56;47.58;;;23.40;;
29550;SDS011;16488;52.396;10.696;2024-02-28T11:16:29;49.45;;;24.00;;
29550;SDS011;16488;52.396;10.696;2024-02-28T11:18:57;46.22;;;23.27;;
29550;SDS011;16488;52.396;10.696;2024-02-28T11:21:24;44.13;;;22.27;;
29550;SDS011;16488;52.396;10.696;2024-02-28T11:23:51;40.20;;;21.52;;
29550;SDS011;16488;52.396;10.696;2024-02-28T11:26:27;46.05;;;23.35;;
29550;SDS011;16488;52.396;10.696;2024-02-28T11:28:55;46.45;;;22.45;;
29550;SDS011;16488;52.396;10.696;2024-02-28T11:31:21;47.90;;;22.38;;
29550;SDS011;16488;52.396;10.696;2024-02-28T11:33:47;51.10;;;23.52;;
29550;SDS011;16488;52.396;10.696;2024-02-28T11:36:13;42.20;;;21.00;;
29550;SDS011;16488;52.396;10.696;2024-02-28T11:38:39;42.90;;;22.08;;
29550;SDS011;16488;52.396;10.696;2024-02-28T11:41:06;47.70;;;24.65;;
29550;SDS011;16488;52.396;10.696;2024-02-28T11:43:32;47.83;;;24.15;;
29550;SDS011;16488;52.396;10.696;2024-02-28T11:45:59;53.58;;;24.25;;
29550;SDS011;16488;52.396;10.696;2024-02-28T11:48:25;47.15;;;23.88;;
29550;SDS011;16488;52.396;10.696;2024-02-28T11:50:54;48.53;;;23.42;;
29550;SDS011;16488;52.396;10.696;2024-02-28T11:53:20;54.38;;;24.58;;
29550;SDS011;16488;52.396;10.696;2024-02-28T11:55:46;53.33;;;26.63;;
29550;SDS011;16488;52.396;10.696;2024-02-28T11:58:13;54.72;;;26.30;;
29550;SDS011;16488;52.396;10.696;2024-02-28T12:00:48;52.08;;;24.30;;
29550;SDS011;16488;52.396;10.696;2024-02-28T12:03:19;52.40;;;24.83;;
29550;SDS011;16488;52.396;10.696;2024-02-28T12:05:45;54.13;;;26.40;;
29550;SDS011;16488;52.396;10.696;2024-02-28T12:08:11;51.65;;;23.85;;
29550;SDS011;16488;52.396;10.696;2024-02-28T12:10:37;54.03;;;25.27;;
29550;SDS011;16488;52.396;10.696;2024-02-28T12:13:02;55.73;;;26.43;;
29550;SDS011;16488;52.396;10.696;2024-02-28T12:15:29;50.47;;;24.33;;
29550;SDS011;16488;52.396;10.696;2024-02-28T12:20:23;51.70;;;26.15;;
29550;SDS011;16488;52.396;10.696;2024-02-28T12:22:48;54.63;;;27.60;;
29550;SDS011;16488;52.396;10.696;2024-02-28T12:25:15;57.30;;;26.10;;
29550;SDS011;16488;52.396;10.696;2024-02-28T12:27:40;53.00;;;25.55;;
29550;SDS011;16488;52.396;10.696;2024-02-28T12:30:07;56.88;;;26.42;;
29550;SDS011;16488;52.396;10.696;2024-02-28T12:32:33;56.30;;;27.85;;
29550;SDS011;16488;52.396;10.696;2024-02-28T12:34:58;56.30;;;26.35;;
29550;SDS011;16488;52.396;10.696;2024-02-28T12:37:24;51.92;;;24.33;;
29550;SDS011;16488;52.396;10.696;2024-02-28T12:39:50;55.92;;;19.85;;
29550;SDS011;16488;52.396;10.696;2024-02-28T12:42:17;43.83;;;18.65;;
29550;SDS011;16488;52.396;10.696;2024-02-28T12:44:43;52.10;;;21.30;;
29550;SDS011;16488;52.396;10.696;2024-02-28T12:47:11;53.42;;;22.15;;
29550;SDS011;16488;52.396;10.696;2024-02-28T12:49:37;50.47;;;20.55;;
29550;SDS011;16488;52.396;10.696;2024-02-28T12:52:03;53.53;;;24.13;;
29550;SDS011;16488;52.396;10.696;2024-02-28T12:54:29;54.50;;;25.20;;
29550;SDS011;16488;52.396;10.696;2024-02-28T12:56:55;56.17;;;24.48;;
29550;SDS011;16488;52.396;10.696;2024-02-28T12:59:21;56.65;;;25.25;;
29550;SDS011;16488;52.396;10.696;2024-02-28T13:01:47;55.20;;;24.27;;
29550;SDS011;16488;52.396;10.696;2024-02-28T13:04:15;56.08;;;22.65;;
29550;SDS011;16488;52.396;10.696;2024-02-28T13:06:41;54.78;;;24.33;;
29550;SDS011;16488;52.396;10.696;2024-02-28T13:09:07;54.05;;;24.48;;
29550;SDS011;16488;52.396;10.696;2024-02-28T13:11:37;50.17;;;24.00;;
29550;SDS011;16488;52.396;10.696;2024-02-28T13:14:03;56.65;;;24.40;;
29550;SDS011;16488;52.396;10.696;2024-02-28T13:18:55;58.90;;;24.25;;
29550;SDS011;16488;52.396;10.696;2024-02-28T13:21:20;60.92;;;27.13;;
29550;SDS011;16488;52.396;10.696;2024-02-28T13:23:46;59.38;;;25.60;;
29550;SDS011;16488;52.396;10.696;2024-02-28T13:26:12;61.08;;;24.48;;
29550;SDS011;16488;52.396;10.696;2024-02-28T13:28:43;60.15;;;24.95;;
29550;SDS011;16488;52.396;10.696;2024-02-28T13:31:09;56.28;;;26.10;;
29550;SDS011;16488;52.396;10.696;2024-02-28T13:33:35;58.78;;;26.40;;
29550;SDS011;16488;52.396;10.696;2024-02-28T13:36:02;63.65;;;26.13;;
29550;SDS011;16488;52.396;10.696;2024-02-28T13:40:55;56.10;;;24.63;;
29550;SDS011;16488;52.396;10.696;2024-02-28T13:43:21;57.83;;;25.05;;
29550;SDS011;16488;52.396;10.696;2024-02-28T13:45:47;56.45;;;23.77;;
29550;SDS011;16488;52.396;10.696;2024-02-28T13:48:17;48.58;;;22.38;;
29550;SDS011;16488;52.396;10.696;2024-02-28T13:50:49;50.17;;;25.05;;
29550;SDS011;16488;52.396;10.696;2024-02-28T13:53:15;46.75;;;22.80;;
29550;SDS011;16488;52.396;10.696;2024-02-28T13:55:44;56.13;;;25.92;;
29550;SDS011;16488;52.396;10.696;2024-02-28T13:58:13;44.33;;;19.75;;
29550;SDS011;16488;52.396;10.696;2024-02-28T14:00:42;49.38;;;20.55;;
29550;SDS011;16488;52.396;10.696;2024-02-28T14:03:10;47.42;;;20.55;;
29550;SDS011;16488;52.396;10.696;2024-02-28T14:05:36;45.83;;;21.67;;
29550;SDS011;16488;52.396;10.696;2024-02-28T14:08:02;50.65;;;22.17;;
29550;SDS011;16488;52.396;10.696;2024-02-28T14:10:33;49.42;;;22.40;;
29550;SDS011;16488;52.396;10.696;2024-02-28T14:12:59;53.08;;;23.15;;
29550;SDS011;16488;52.396;10.696;2024-02-28T14:15:24;54.22;;;24.45;;
29550;SDS011;16488;52.396;10.696;2024-02-28T14:17:50;50.65;;;23.58;;
29550;SDS011;16488;52.396;10.696;2024-02-28T14:20:16;50.47;;;23.42;;
29550;SDS011;16488;52.396;10.696;2024-02-28T14:22:42;51.58;;;23.83;;
29550;SDS011;16488;52.396;10.696;2024-02-28T14:25:12;54.47;;;25.48;;
29550;SDS011;16488;52.396;10.696;2024-02-28T14:27:39;51.90;;;22.27;;
29550;SDS011;16488;52.396;10.696;2024-02-28T14:32:34;51.72;;;23.00;;
29550;SDS011;16488;52.396;10.696;2024-02-28T14:35:05;52.72;;;22.42;;
29550;SDS011;16488;52.396;10.696;2024-02-28T14:37:32;52.05;;;23.27;;